sensor_id;sensor_type;location;lat;lon;timestamp;temperature;humidity
2435;DHT22;1228;51.022;6.764;2023-09-07T00:00:39;17.70;99.90
2435;DHT22;1228;51.022;6.764;2023-09-07T00:03:05;17.70;99.90
2435;DHT22;1228;51.022;6.764;2023-09-07T00:05:31;17.60;99.90
2435;DHT22;1228;51.022;6.764;2023-09-07T00:07:56;17.60;99.90
2435;DHT22;1228;51.022;6.764;2023-09-07T00:10:23;17.60;99.90
2435;DHT22;1228;51.022;6.764;2023-09-07T00:12:48;17.50;99.90
2435;DHT22;1228;51.022;6.764;2023-09-07T00:15:14;17.50;99.90
2435;DHT22;1228;51.022;6.764;2023-09-07T00:17:40;17.40;99.90
2435;DHT22;1228;51.022;6.764;2023-09-07T00:20:06;17.30;99.90
2435;DHT22;1228;51.022;6.764;2023-09-07T00:22:40;17.40;99.90
2435;DHT22;1228;51.022;6.764;2023-09-07T00:25:06;17.30;99.90
2435;DHT22;1228;51.022;6.764;2023-09-07T00:27:35;17.30;99.90
2435;DHT22;1228;51.022;6.764;2023-09-07T00:30:01;17.20;99.90
2435;DHT22;1228;51.022;6.764;2023-09-07T00:32:27;17.20;99.90
2435;DHT22;1228;51.022;6.764;2023-09-07T00:34:53;17.20;99.90
2435;DHT22;1228;51.022;6.764;2023-09-07T00:37:18;17.20;99.90
2435;DHT22;1228;51.022;6.764;2023-09-07T00:39:44;17.10;99.90
2435;DHT22;1228;51.022;6.764;2023-09-07T00:42:09;17.10;99.90
2435;DHT22;1228;51.022;6.764;2023-09-07T00:44:35;17.10;99.90
2435;DHT22;1228;51.022;6.764;2023-09-07T00:47:01;17.00;99.90
2435;DHT22;1228;51.022;6.764;2023-09-07T00:49:27;17.00;99.90
2435;DHT22;1228;51.022;6.764;2023-09-07T00:51:53;17.00;99.90
2435;DHT22;1228;51.022;6.764;2023-09-07T00:54:19;16.90;99.90
2435;DHT22;1228;51.022;6.764;2023-09-07T00:56:45;16.90;99.90
2435;DHT22;1228;51.022;6.764;2023-09-07T00:59:11;16.90;99.90
2435;DHT22;1228;51.022;6.764;2023-09-07T01:01:38;16.90;99.90
2435;DHT22;1228;51.022;6.764;2023-09-07T01:04:04;16.80;99.90
2435;DHT22;1228;51.022;6.764;2023-09-07T01:06:35;16.80;99.90
2435;DHT22;1228;51.022;6.764;2023-09-07T01:09:10;16.80;99.90
2435;DHT22;1228;51.022;6.764;2023-09-07T01:11:38;16.80;99.90
2435;DHT22;1228;51.022;6.764;2023-09-07T01:14:04;16.70;99.90
2435;DHT22;1228;51.022;6.764;2023-09-07T01:16:31;16.80;99.90
2435;DHT22;1228;51.022;6.764;2023-09-07T01:19:00;16.70;99.90
2435;DHT22;1228;51.022;6.764;2023-09-07T01:21:26;16.70;99.90
2435;DHT22;1228;51.022;6.764;2023-09-07T01:23:54;16.70;99.90
2435;DHT22;1228;51.022;6.764;2023-09-07T01:26:20;16.70;99.90
2435;DHT22;1228;51.022;6.764;2023-09-07T01:28:46;16.70;99.90
2435;DHT22;1228;51.022;6.764;2023-09-07T01:31:11;16.70;99.90
2435;DHT22;1228;51.022;6.764;2023-09-07T01:33:37;16.70;99.90
2435;DHT22;1228;51.022;6.764;2023-09-07T01:36:03;16.60;99.90
2435;DHT22;1228;51.022;6.764;2023-09-07T01:38:29;16.60;99.90
2435;DHT22;1228;51.022;6.764;2023-09-07T01:40:55;16.60;99.90
2435;DHT22;1228;51.022;6.764;2023-09-07T01:43:20;16.60;99.90
2435;DHT22;1228;51.022;6.764;2023-09-07T01:45:46;16.60;99.90
2435;DHT22;1228;51.022;6.764;2023-09-07T01:48:13;16.60;99.90
2435;DHT22;1228;51.022;6.764;2023-09-07T01:50:39;16.70;99.90
2435;DHT22;1228;51.022;6.764;2023-09-07T01:53:04;16.70;99.90
2435;DHT22;1228;51.022;6.764;2023-09-07T01:55:31;16.70;99.90
2435;DHT22;1228;51.022;6.764;2023-09-07T01:57:57;16.80;99.90
2435;DHT22;1228;51.022;6.764;2023-09-07T02:00:22;16.70;99.90
2435;DHT22;1228;51.022;6.764;2023-09-07T02:02:48;16.80;99.90
2435;DHT22;1228;51.022;6.764;2023-09-07T02:05:14;16.80;99.90
2435;DHT22;1228;51.022;6.764;2023-09-07T02:07:39;16.80;99.90
2435;DHT22;1228;51.022;6.764;2023-09-07T02:10:06;16.80;99.90
2435;DHT22;1228;51.022;6.764;2023-09-07T02:12:31;16.70;99.90
2435;DHT22;1228;51.022;6.764;2023-09-07T02:15:00;16.70;99.90
2435;DHT22;1228;51.022;6.764;2023-09-07T02:17:25;16.70;99.90
2435;DHT22;1228;51.022;6.764;2023-09-07T02:19:51;16.60;99.90
2435;DHT22;1228;51.022;6.764;2023-09-07T02:22:16;16.70;99.90
2435;DHT22;1228;51.022;6.764;2023-09-07T02:24:42;16.60;99.90
2435;DHT22;1228;51.022;6.764;2023-09-07T02:27:08;16.60;99.90
2435;DHT22;1228;51.022;6.764;2023-09-07T02:29:33;16.50;99.90
2435;DHT22;1228;51.022;6.764;2023-09-07T02:31:59;16.40;99.90
2435;DHT22;1228;51.022;6.764;2023-09-07T02:34:24;16.40;99.90
2435;DHT22;1228;51.022;6.764;2023-09-07T02:36:50;16.40;99.90
2435;DHT22;1228;51.022;6.764;2023-09-07T02:39:15;16.30;99.90
2435;DHT22;1228;51.022;6.764;2023-09-07T02:41:42;16.30;99.90
2435;DHT22;1228;51.022;6.764;2023-09-07T02:44:08;16.30;99.90
2435;DHT22;1228;51.022;6.764;2023-09-07T02:46:33;16.30;99.90
2435;DHT22;1228;51.022;6.764;2023-09-07T02:49:00;16.20;99.90
2435;DHT22;1228;51.022;6.764;2023-09-07T02:51:26;16.20;99.90
2435;DHT22;1228;51.022;6.764;2023-09-07T02:53:53;16.20;99.90
2435;DHT22;1228;51.022;6.764;2023-09-07T02:56:18;16.20;99.90
2435;DHT22;1228;51.022;6.764;2023-09-07T02:58:44;16.10;99.90
2435;DHT22;1228;51.022;6.764;2023-09-07T03:01:10;16.10;99.90
2435;DHT22;1228;51.022;6.764;2023-09-07T03:03:37;16.10;99.90
2435;DHT22;1228;51.022;6.764;2023-09-07T03:06:10;16.00;99.90
2435;DHT22;1228;51.022;6.764;2023-09-07T03:08:36;16.00;99.90
2435;DHT22;1228;51.022;6.764;2023-09-07T03:11:05;16.00;99.90
2435;DHT22;1228;51.022;6.764;2023-09-07T03:13:32;16.00;99.90
2435;DHT22;1228;51.022;6.764;2023-09-07T03:15:58;16.00;99.90
2435;DHT22;1228;51.022;6.764;2023-09-07T03:18:23;16.00;99.90
2435;DHT22;1228;51.022;6.764;2023-09-07T03:20:54;16.10;99.90
2435;DHT22;1228;51.022;6.764;2023-09-07T03:23:21;16.10;99.90
2435;DHT22;1228;51.022;6.764;2023-09-07T03:25:47;16.00;99.90
2435;DHT22;1228;51.022;6.764;2023-09-07T03:28:13;16.00;99.90
2435;DHT22;1228;51.022;6.764;2023-09-07T03:30:38;16.00;99.90
2435;DHT22;1228;51.022;6.764;2023-09-07T03:33:05;16.00;99.90
2435;DHT22;1228;51.022;6.764;2023-09-07T03:35:31;15.90;99.90
2435;DHT22;1228;51.022;6.764;2023-09-07T03:37:56;15.90;99.90
2435;DHT22;1228;51.022;6.764;2023-09-07T03:40:22;15.80;99.90
2435;DHT22;1228;51.022;6.764;2023-09-07T03:42:48;15.80;99.90
2435;DHT22;1228;51.022;6.764;2023-09-07T03:45:13;15.70;99.90
2435;DHT22;1228;51.022;6.764;2023-09-07T03:47:39;15.70;99.90
2435;DHT22;1228;51.022;6.764;2023-09-07T03:50:05;15.70;99.90
2435;DHT22;1228;51.022;6.764;2023-09-07T03:52:31;15.70;99.90
2435;DHT22;1228;51.022;6.764;2023-09-07T03:54:57;15.70;99.90
2435;DHT22;1228;51.022;6.764;2023-09-07T03:57:24;15.70;99.90
2435;DHT22;1228;51.022;6.764;2023-09-07T03:59:50;15.70;99.90
2435;DHT22;1228;51.022;6.764;2023-09-07T04:02:16;15.70;99.90
2435;DHT22;1228;51.022;6.764;2023-09-07T04:04:43;15.70;99.90
2435;DHT22;1228;51.022;6.764;2023-09-07T04:07:09;15.60;99.90
2435;DHT22;1228;51.022;6.764;2023-09-07T04:09:35;15.60;99.90
2435;DHT22;1228;51.022;6.764;2023-09-07T04:12:00;15.60;99.90
2435;DHT22;1228;51.022;6.764;2023-09-07T04:14:26;15.60;99.90
2435;DHT22;1228;51.022;6.764;2023-09-07T04:16:53;15.70;99.90
2435;DHT22;1228;51.022;6.764;2023-09-07T04:19:19;15.70;99.90
2435;DHT22;1228;51.022;6.764;2023-09-07T04:21:44;15.70;99.90
2435;DHT22;1228;51.022;6.764;2023-09-07T04:24:10;15.70;99.90
2435;DHT22;1228;51.022;6.764;2023-09-07T04:26:37;15.70;99.90
2435;DHT22;1228;51.022;6.764;2023-09-07T04:29:03;15.70;99.90
2435;DHT22;1228;51.022;6.764;2023-09-07T04:31:29;15.70;99.90
2435;DHT22;1228;51.022;6.764;2023-09-07T04:33:55;15.70;99.90
2435;DHT22;1228;51.022;6.764;2023-09-07T04:36:20;15.80;99.90
2435;DHT22;1228;51.022;6.764;2023-09-07T04:38:46;15.80;99.90
2435;DHT22;1228;51.022;6.764;2023-09-07T04:41:12;15.80;99.90
2435;DHT22;1228;51.022;6.764;2023-09-07T04:43:39;15.80;99.90
2435;DHT22;1228;51.022;6.764;2023-09-07T04:46:12;15.80;99.90
2435;DHT22;1228;51.022;6.764;2023-09-07T04:48:38;15.90;99.90
2435;DHT22;1228;51.022;6.764;2023-09-07T04:51:05;15.90;99.90
2435;DHT22;1228;51.022;6.764;2023-09-07T04:53:33;15.90;99.90
2435;DHT22;1228;51.022;6.764;2023-09-07T04:56:00;15.90;99.90
2435;DHT22;1228;51.022;6.764;2023-09-07T04:58:26;16.00;99.90
2435;DHT22;1228;51.022;6.764;2023-09-07T05:00:53;16.00;99.90
2435;DHT22;1228;51.022;6.764;2023-09-07T05:03:18;15.90;99.90
2435;DHT22;1228;51.022;6.764;2023-09-07T05:05:44;16.00;99.90
2435;DHT22;1228;51.022;6.764;2023-09-07T05:08:10;15.90;99.90
2435;DHT22;1228;51.022;6.764;2023-09-07T05:10:36;15.90;99.90
2435;DHT22;1228;51.022;6.764;2023-09-07T05:13:02;15.90;99.90
2435;DHT22;1228;51.022;6.764;2023-09-07T05:15:28;15.90;99.90
2435;DHT22;1228;51.022;6.764;2023-09-07T05:17:54;15.90;99.90
2435;DHT22;1228;51.022;6.764;2023-09-07T05:20:20;15.80;99.90
2435;DHT22;1228;51.022;6.764;2023-09-07T05:22:46;15.80;99.90
2435;DHT22;1228;51.022;6.764;2023-09-07T05:25:12;15.90;99.90
2435;DHT22;1228;51.022;6.764;2023-09-07T05:27:37;15.90;99.90
2435;DHT22;1228;51.022;6.764;2023-09-07T05:30:04;15.90;99.90
2435;DHT22;1228;51.022;6.764;2023-09-07T05:32:30;16.00;99.90
2435;DHT22;1228;51.022;6.764;2023-09-07T05:34:56;16.00;99.90
2435;DHT22;1228;51.022;6.764;2023-09-07T05:37:22;16.10;99.90
2435;DHT22;1228;51.022;6.764;2023-09-07T05:39:48;16.10;99.90
2435;DHT22;1228;51.022;6.764;2023-09-07T05:42:14;16.20;99.90
2435;DHT22;1228;51.022;6.764;2023-09-07T05:44:40;16.20;99.90
2435;DHT22;1228;51.022;6.764;2023-09-07T05:47:05;16.30;99.90
2435;DHT22;1228;51.022;6.764;2023-09-07T05:49:31;16.30;99.90
2435;DHT22;1228;51.022;6.764;2023-09-07T05:51:57;16.40;99.90
2435;DHT22;1228;51.022;6.764;2023-09-07T05:54:22;16.50;99.90
2435;DHT22;1228;51.022;6.764;2023-09-07T05:56:48;16.50;99.90
2435;DHT22;1228;51.022;6.764;2023-09-07T05:59:13;16.60;99.90
2435;DHT22;1228;51.022;6.764;2023-09-07T06:01:39;16.70;99.90
2435;DHT22;1228;51.022;6.764;2023-09-07T06:04:06;16.80;99.90
2435;DHT22;1228;51.022;6.764;2023-09-07T06:06:31;16.80;99.90
2435;DHT22;1228;51.022;6.764;2023-09-07T06:08:57;16.90;99.90
2435;DHT22;1228;51.022;6.764;2023-09-07T06:11:26;17.00;99.90
2435;DHT22;1228;51.022;6.764;2023-09-07T06:13:51;17.10;99.90
2435;DHT22;1228;51.022;6.764;2023-09-07T06:16:17;17.20;99.90
2435;DHT22;1228;51.022;6.764;2023-09-07T06:18:43;17.40;99.90
2435;DHT22;1228;51.022;6.764;2023-09-07T06:21:09;17.70;99.90
2435;DHT22;1228;51.022;6.764;2023-09-07T06:23:35;18.20;99.90
2435;DHT22;1228;51.022;6.764;2023-09-07T06:26:00;18.80;99.90
2435;DHT22;1228;51.022;6.764;2023-09-07T06:28:26;19.40;99.90
2435;DHT22;1228;51.022;6.764;2023-09-07T06:30:52;19.90;99.90
2435;DHT22;1228;51.022;6.764;2023-09-07T06:33:18;20.50;99.90
2435;DHT22;1228;51.022;6.764;2023-09-07T06:35:43;21.00;99.90
2435;DHT22;1228;51.022;6.764;2023-09-07T06:38:09;21.60;99.90
2435;DHT22;1228;51.022;6.764;2023-09-07T06:40:35;22.20;99.90
2435;DHT22;1228;51.022;6.764;2023-09-07T06:43:00;22.70;99.90
2435;DHT22;1228;51.022;6.764;2023-09-07T06:45:34;23.20;99.90
2435;DHT22;1228;51.022;6.764;2023-09-07T06:47:59;23.70;99.90
2435;DHT22;1228;51.022;6.764;2023-09-07T06:50:25;24.20;99.90
2435;DHT22;1228;51.022;6.764;2023-09-07T06:52:51;24.60;99.90
2435;DHT22;1228;51.022;6.764;2023-09-07T06:55:16;25.10;99.90
2435;DHT22;1228;51.022;6.764;2023-09-07T06:57:42;25.50;99.90
2435;DHT22;1228;51.022;6.764;2023-09-07T07:00:08;26.00;99.90
2435;DHT22;1228;51.022;6.764;2023-09-07T07:02:34;26.30;99.90
2435;DHT22;1228;51.022;6.764;2023-09-07T07:05:00;26.60;99.90
2435;DHT22;1228;51.022;6.764;2023-09-07T07:07:26;26.70;99.90
2435;DHT22;1228;51.022;6.764;2023-09-07T07:09:51;26.90;99.90
2435;DHT22;1228;51.022;6.764;2023-09-07T07:12:18;27.10;99.90
2435;DHT22;1228;51.022;6.764;2023-09-07T07:14:44;27.40;99.90
2435;DHT22;1228;51.022;6.764;2023-09-07T07:17:10;27.50;99.90
2435;DHT22;1228;51.022;6.764;2023-09-07T07:19:35;27.60;99.90
2435;DHT22;1228;51.022;6.764;2023-09-07T07:22:01;27.70;99.90
2435;DHT22;1228;51.022;6.764;2023-09-07T07:24:26;27.90;99.90
2435;DHT22;1228;51.022;6.764;2023-09-07T07:26:52;28.20;99.90
2435;DHT22;1228;51.022;6.764;2023-09-07T07:29:18;28.50;99.90
2435;DHT22;1228;51.022;6.764;2023-09-07T07:31:44;28.70;99.90
2435;DHT22;1228;51.022;6.764;2023-09-07T07:34:09;28.80;99.90
2435;DHT22;1228;51.022;6.764;2023-09-07T07:36:35;28.90;99.90
2435;DHT22;1228;51.022;6.764;2023-09-07T07:39:02;29.20;99.90
2435;DHT22;1228;51.022;6.764;2023-09-07T07:41:28;29.50;99.90
2435;DHT22;1228;51.022;6.764;2023-09-07T07:43:54;29.70;99.90
2435;DHT22;1228;51.022;6.764;2023-09-07T07:46:20;29.70;99.90
2435;DHT22;1228;51.022;6.764;2023-09-07T07:48:45;29.80;99.90
2435;DHT22;1228;51.022;6.764;2023-09-07T07:51:11;30.00;99.90
2435;DHT22;1228;51.022;6.764;2023-09-07T07:53:37;30.20;99.90
2435;DHT22;1228;51.022;6.764;2023-09-07T07:56:02;30.40;99.90
2435;DHT22;1228;51.022;6.764;2023-09-07T07:58:29;30.30;99.90
2435;DHT22;1228;51.022;6.764;2023-09-07T08:00:54;29.90;99.90
2435;DHT22;1228;51.022;6.764;2023-09-07T08:03:23;30.10;99.90
2435;DHT22;1228;51.022;6.764;2023-09-07T08:05:49;30.50;99.90
2435;DHT22;1228;51.022;6.764;2023-09-07T08:08:15;30.70;99.90
2435;DHT22;1228;51.022;6.764;2023-09-07T08:10:40;31.00;99.90
2435;DHT22;1228;51.022;6.764;2023-09-07T08:13:07;31.10;99.90
2435;DHT22;1228;51.022;6.764;2023-09-07T08:15:33;31.10;99.90
2435;DHT22;1228;51.022;6.764;2023-09-07T08:18:00;31.10;99.90
2435;DHT22;1228;51.022;6.764;2023-09-07T08:20:26;31.00;99.90
2435;DHT22;1228;51.022;6.764;2023-09-07T08:22:52;31.10;99.90
2435;DHT22;1228;51.022;6.764;2023-09-07T08:25:18;31.10;99.90
2435;DHT22;1228;51.022;6.764;2023-09-07T08:27:44;31.20;99.90
2435;DHT22;1228;51.022;6.764;2023-09-07T08:30:16;31.40;99.90
2435;DHT22;1228;51.022;6.764;2023-09-07T08:32:43;31.40;99.90
2435;DHT22;1228;51.022;6.764;2023-09-07T08:35:10;31.20;99.90
2435;DHT22;1228;51.022;6.764;2023-09-07T08:37:41;31.50;99.90
2435;DHT22;1228;51.022;6.764;2023-09-07T08:40:07;31.90;99.90
2435;DHT22;1228;51.022;6.764;2023-09-07T08:42:35;32.10;99.90
2435;DHT22;1228;51.022;6.764;2023-09-07T08:45:02;32.10;99.90
2435;DHT22;1228;51.022;6.764;2023-09-07T08:47:36;32.30;99.90
2435;DHT22;1228;51.022;6.764;2023-09-07T08:50:02;32.20;99.90
2435;DHT22;1228;51.022;6.764;2023-09-07T08:52:29;31.80;99.90
2435;DHT22;1228;51.022;6.764;2023-09-07T08:54:56;31.60;99.90
2435;DHT22;1228;51.022;6.764;2023-09-07T08:57:24;31.50;99.90
2435;DHT22;1228;51.022;6.764;2023-09-07T08:59:50;31.70;99.90
2435;DHT22;1228;51.022;6.764;2023-09-07T09:02:16;32.00;99.90
2435;DHT22;1228;51.022;6.764;2023-09-07T09:04:42;32.10;99.90
2435;DHT22;1228;51.022;6.764;2023-09-07T09:07:07;32.40;99.90
2435;DHT22;1228;51.022;6.764;2023-09-07T09:09:33;32.40;99.90
2435;DHT22;1228;51.022;6.764;2023-09-07T09:12:12;32.70;99.90
2435;DHT22;1228;51.022;6.764;2023-09-07T09:14:39;32.70;99.90
2435;DHT22;1228;51.022;6.764;2023-09-07T09:17:11;32.80;99.90
2435;DHT22;1228;51.022;6.764;2023-09-07T09:19:38;32.80;99.90
2435;DHT22;1228;51.022;6.764;2023-09-07T09:22:03;32.90;99.90
2435;DHT22;1228;51.022;6.764;2023-09-07T09:24:35;32.70;99.90
2435;DHT22;1228;51.022;6.764;2023-09-07T09:27:01;32.40;99.90
2435;DHT22;1228;51.022;6.764;2023-09-07T09:29:27;32.20;99.90
2435;DHT22;1228;51.022;6.764;2023-09-07T09:31:53;31.80;99.90
2435;DHT22;1228;51.022;6.764;2023-09-07T09:34:19;31.50;99.90
2435;DHT22;1228;51.022;6.764;2023-09-07T09:36:45;31.60;99.90
2435;DHT22;1228;51.022;6.764;2023-09-07T09:39:21;31.70;99.90
2435;DHT22;1228;51.022;6.764;2023-09-07T09:41:48;31.70;99.90
2435;DHT22;1228;51.022;6.764;2023-09-07T09:44:16;31.70;99.90
2435;DHT22;1228;51.022;6.764;2023-09-07T09:46:42;32.10;99.90
2435;DHT22;1228;51.022;6.764;2023-09-07T09:49:09;32.30;99.90
2435;DHT22;1228;51.022;6.764;2023-09-07T09:51:37;32.50;99.90
2435;DHT22;1228;51.022;6.764;2023-09-07T09:54:05;32.70;99.90
2435;DHT22;1228;51.022;6.764;2023-09-07T09:56:31;32.90;99.90
2435;DHT22;1228;51.022;6.764;2023-09-07T09:58:57;32.90;99.90
2435;DHT22;1228;51.022;6.764;2023-09-07T10:01:23;32.90;99.90
2435;DHT22;1228;51.022;6.764;2023-09-07T10:03:49;32.70;99.90
2435;DHT22;1228;51.022;6.764;2023-09-07T10:09:05;32.80;99.90
2435;DHT22;1228;51.022;6.764;2023-09-07T10:11:38;32.80;99.90
2435;DHT22;1228;51.022;6.764;2023-09-07T10:14:05;32.80;99.90
2435;DHT22;1228;51.022;6.764;2023-09-07T10:16:51;32.70;99.90
2435;DHT22;1228;51.022;6.764;2023-09-07T10:19:20;32.70;99.90
2435;DHT22;1228;51.022;6.764;2023-09-07T10:21:46;32.60;99.90
2435;DHT22;1228;51.022;6.764;2023-09-07T10:24:27;32.40;99.90
2435;DHT22;1228;51.022;6.764;2023-09-07T10:27:22;32.10;99.90
2435;DHT22;1228;51.022;6.764;2023-09-07T10:29:51;31.90;99.90
2435;DHT22;1228;51.022;6.764;2023-09-07T10:32:20;31.80;99.90
2435;DHT22;1228;51.022;6.764;2023-09-07T10:34:46;31.70;99.90
2435;DHT22;1228;51.022;6.764;2023-09-07T10:37:12;31.50;99.90
2435;DHT22;1228;51.022;6.764;2023-09-07T10:39:39;31.10;99.90
2435;DHT22;1228;51.022;6.764;2023-09-07T10:42:05;31.00;99.90
2435;DHT22;1228;51.022;6.764;2023-09-07T10:44:31;31.10;99.90
2435;DHT22;1228;51.022;6.764;2023-09-07T10:46:57;31.30;99.90
2435;DHT22;1228;51.022;6.764;2023-09-07T10:49:24;31.40;99.90
2435;DHT22;1228;51.022;6.764;2023-09-07T10:51:49;31.50;99.90
2435;DHT22;1228;51.022;6.764;2023-09-07T10:54:22;31.50;99.90
2435;DHT22;1228;51.022;6.764;2023-09-07T10:56:51;31.40;99.90
2435;DHT22;1228;51.022;6.764;2023-09-07T10:59:17;31.40;99.90
2435;DHT22;1228;51.022;6.764;2023-09-07T11:01:46;31.30;99.90
2435;DHT22;1228;51.022;6.764;2023-09-07T11:04:13;31.30;99.90
2435;DHT22;1228;51.022;6.764;2023-09-07T11:06:40;31.20;99.90
2435;DHT22;1228;51.022;6.764;2023-09-07T11:09:06;31.20;99.90
2435;DHT22;1228;51.022;6.764;2023-09-07T11:11:35;31.20;99.90
2435;DHT22;1228;51.022;6.764;2023-09-07T11:14:05;31.00;99.90
2435;DHT22;1228;51.022;6.764;2023-09-07T11:16:32;31.00;99.90
2435;DHT22;1228;51.022;6.764;2023-09-07T11:19:06;30.90;99.90
2435;DHT22;1228;51.022;6.764;2023-09-07T11:21:32;30.70;99.90
2435;DHT22;1228;51.022;6.764;2023-09-07T11:24:00;30.50;99.90
2435;DHT22;1228;51.022;6.764;2023-09-07T11:26:26;30.50;99.90
2435;DHT22;1228;51.022;6.764;2023-09-07T11:28:51;30.50;99.90
2435;DHT22;1228;51.022;6.764;2023-09-07T11:31:20;30.40;99.90
2435;DHT22;1228;51.022;6.764;2023-09-07T11:33:47;30.50;99.90
2435;DHT22;1228;51.022;6.764;2023-09-07T11:36:14;30.60;99.90
2435;DHT22;1228;51.022;6.764;2023-09-07T11:38:43;30.60;99.90
2435;DHT22;1228;51.022;6.764;2023-09-07T11:41:09;30.70;99.90
2435;DHT22;1228;51.022;6.764;2023-09-07T11:43:34;30.80;99.90
2435;DHT22;1228;51.022;6.764;2023-09-07T11:46:00;30.70;99.90
2435;DHT22;1228;51.022;6.764;2023-09-07T11:48:26;30.80;99.90
2435;DHT22;1228;51.022;6.764;2023-09-07T11:50:53;30.80;99.90
2435;DHT22;1228;51.022;6.764;2023-09-07T11:53:19;31.10;99.90
2435;DHT22;1228;51.022;6.764;2023-09-07T11:55:45;31.40;99.90
2435;DHT22;1228;51.022;6.764;2023-09-07T11:58:10;31.40;99.90
2435;DHT22;1228;51.022;6.764;2023-09-07T12:00:36;31.60;99.90
2435;DHT22;1228;51.022;6.764;2023-09-07T12:03:02;31.80;99.90
2435;DHT22;1228;51.022;6.764;2023-09-07T12:05:28;31.80;99.90
2435;DHT22;1228;51.022;6.764;2023-09-07T12:07:53;31.90;99.90
2435;DHT22;1228;51.022;6.764;2023-09-07T12:10:19;31.80;99.90
2435;DHT22;1228;51.022;6.764;2023-09-07T12:12:45;31.90;99.90
2435;DHT22;1228;51.022;6.764;2023-09-07T12:15:11;31.90;99.90
2435;DHT22;1228;51.022;6.764;2023-09-07T12:17:37;31.90;99.90
2435;DHT22;1228;51.022;6.764;2023-09-07T12:20:03;31.80;99.90
2435;DHT22;1228;51.022;6.764;2023-09-07T12:22:30;31.90;99.90
2435;DHT22;1228;51.022;6.764;2023-09-07T12:24:56;31.80;99.90
2435;DHT22;1228;51.022;6.764;2023-09-07T12:27:22;31.90;99.90
2435;DHT22;1228;51.022;6.764;2023-09-07T12:29:47;32.10;99.90
2435;DHT22;1228;51.022;6.764;2023-09-07T12:32:14;32.10;99.90
2435;DHT22;1228;51.022;6.764;2023-09-07T12:34:39;32.20;99.90
2435;DHT22;1228;51.022;6.764;2023-09-07T12:37:05;32.30;99.90
2435;DHT22;1228;51.022;6.764;2023-09-07T12:39:32;32.40;99.90
2435;DHT22;1228;51.022;6.764;2023-09-07T12:41:57;32.30;99.90
2435;DHT22;1228;51.022;6.764;2023-09-07T12:44:23;32.30;99.90
2435;DHT22;1228;51.022;6.764;2023-09-07T12:46:49;32.40;99.90
2435;DHT22;1228;51.022;6.764;2023-09-07T12:49:14;32.30;99.90
2435;DHT22;1228;51.022;6.764;2023-09-07T12:51:44;32.40;99.90
2435;DHT22;1228;51.022;6.764;2023-09-07T12:54:10;32.50;99.90
2435;DHT22;1228;51.022;6.764;2023-09-07T12:56:36;32.70;99.90
2435;DHT22;1228;51.022;6.764;2023-09-07T12:59:01;32.70;99.90
2435;DHT22;1228;51.022;6.764;2023-09-07T13:01:29;32.70;99.90
2435;DHT22;1228;51.022;6.764;2023-09-07T13:03:56;32.90;99.90
2435;DHT22;1228;51.022;6.764;2023-09-07T13:06:21;32.90;99.90
2435;DHT22;1228;51.022;6.764;2023-09-07T13:08:47;33.10;99.90
2435;DHT22;1228;51.022;6.764;2023-09-07T13:11:13;33.40;99.90
2435;DHT22;1228;51.022;6.764;2023-09-07T13:13:38;33.40;99.90
2435;DHT22;1228;51.022;6.764;2023-09-07T13:16:04;33.40;99.90
2435;DHT22;1228;51.022;6.764;2023-09-07T13:18:30;33.40;99.90
2435;DHT22;1228;51.022;6.764;2023-09-07T13:20:57;33.50;99.90
2435;DHT22;1228;51.022;6.764;2023-09-07T13:23:28;33.40;99.90
2435;DHT22;1228;51.022;6.764;2023-09-07T13:25:58;33.30;99.90
2435;DHT22;1228;51.022;6.764;2023-09-07T13:28:25;33.30;99.90
2435;DHT22;1228;51.022;6.764;2023-09-07T13:30:51;33.30;99.90
2435;DHT22;1228;51.022;6.764;2023-09-07T13:33:17;33.30;99.90
2435;DHT22;1228;51.022;6.764;2023-09-07T13:35:42;33.40;99.90
2435;DHT22;1228;51.022;6.764;2023-09-07T13:38:09;33.50;99.90
2435;DHT22;1228;51.022;6.764;2023-09-07T13:40:34;33.50;99.90
2435;DHT22;1228;51.022;6.764;2023-09-07T13:43:00;33.30;99.90
2435;DHT22;1228;51.022;6.764;2023-09-07T13:45:26;33.20;99.90
2435;DHT22;1228;51.022;6.764;2023-09-07T13:47:51;33.10;99.90
2435;DHT22;1228;51.022;6.764;2023-09-07T13:50:17;33.10;99.90
2435;DHT22;1228;51.022;6.764;2023-09-07T13:52:42;33.20;99.90
2435;DHT22;1228;51.022;6.764;2023-09-07T13:55:08;33.10;99.90
2435;DHT22;1228;51.022;6.764;2023-09-07T13:57:34;33.10;99.90
2435;DHT22;1228;51.022;6.764;2023-09-07T14:00:00;33.10;99.90
2435;DHT22;1228;51.022;6.764;2023-09-07T14:02:26;33.20;99.90
2435;DHT22;1228;51.022;6.764;2023-09-07T14:04:51;33.20;99.90
2435;DHT22;1228;51.022;6.764;2023-09-07T14:07:17;33.40;99.90
2435;DHT22;1228;51.022;6.764;2023-09-07T14:09:43;33.50;99.90
2435;DHT22;1228;51.022;6.764;2023-09-07T14:12:09;33.80;99.90
2435;DHT22;1228;51.022;6.764;2023-09-07T14:14:35;33.90;99.90
2435;DHT22;1228;51.022;6.764;2023-09-07T14:17:01;34.10;99.90
2435;DHT22;1228;51.022;6.764;2023-09-07T14:19:26;34.10;99.90
2435;DHT22;1228;51.022;6.764;2023-09-07T14:21:57;34.00;99.90
2435;DHT22;1228;51.022;6.764;2023-09-07T14:24:23;33.90;99.90
2435;DHT22;1228;51.022;6.764;2023-09-07T14:26:49;33.90;99.90
2435;DHT22;1228;51.022;6.764;2023-09-07T14:29:15;33.90;99.90
2435;DHT22;1228;51.022;6.764;2023-09-07T14:31:40;34.00;99.90
2435;DHT22;1228;51.022;6.764;2023-09-07T14:34:08;34.00;99.90
2435;DHT22;1228;51.022;6.764;2023-09-07T14:36:34;33.90;99.90
2435;DHT22;1228;51.022;6.764;2023-09-07T14:38:59;33.80;99.90
2435;DHT22;1228;51.022;6.764;2023-09-07T14:41:25;33.80;99.90
2435;DHT22;1228;51.022;6.764;2023-09-07T14:43:52;33.70;99.90
2435;DHT22;1228;51.022;6.764;2023-09-07T14:46:21;33.60;99.90
2435;DHT22;1228;51.022;6.764;2023-09-07T14:48:50;33.60;99.90
2435;DHT22;1228;51.022;6.764;2023-09-07T14:51:15;33.70;99.90
2435;DHT22;1228;51.022;6.764;2023-09-07T14:53:42;33.90;99.90
2435;DHT22;1228;51.022;6.764;2023-09-07T14:56:07;34.10;99.90
2435;DHT22;1228;51.022;6.764;2023-09-07T14:58:33;34.10;99.90
2435;DHT22;1228;51.022;6.764;2023-09-07T15:00:59;34.40;99.90
2435;DHT22;1228;51.022;6.764;2023-09-07T15:03:25;34.40;99.90
2435;DHT22;1228;51.022;6.764;2023-09-07T15:05:51;34.50;99.90
2435;DHT22;1228;51.022;6.764;2023-09-07T15:08:17;34.70;99.90
2435;DHT22;1228;51.022;6.764;2023-09-07T15:10:43;34.70;99.90
2435;DHT22;1228;51.022;6.764;2023-09-07T15:13:09;34.70;99.90
2435;DHT22;1228;51.022;6.764;2023-09-07T15:15:35;34.70;99.90
2435;DHT22;1228;51.022;6.764;2023-09-07T15:18:06;34.70;99.90
2435;DHT22;1228;51.022;6.764;2023-09-07T15:20:32;34.60;99.90
2435;DHT22;1228;51.022;6.764;2023-09-07T15:22:58;34.70;99.90
2435;DHT22;1228;51.022;6.764;2023-09-07T15:25:24;34.80;99.90
2435;DHT22;1228;51.022;6.764;2023-09-07T15:27:49;34.70;99.90
2435;DHT22;1228;51.022;6.764;2023-09-07T15:30:15;34.50;99.90
2435;DHT22;1228;51.022;6.764;2023-09-07T15:32:41;34.50;99.90
2435;DHT22;1228;51.022;6.764;2023-09-07T15:35:09;34.60;99.90
2435;DHT22;1228;51.022;6.764;2023-09-07T15:37:35;34.70;99.90
2435;DHT22;1228;51.022;6.764;2023-09-07T15:40:00;34.60;99.90
2435;DHT22;1228;51.022;6.764;2023-09-07T15:42:26;34.60;99.90
2435;DHT22;1228;51.022;6.764;2023-09-07T15:44:52;34.40;99.90
2435;DHT22;1228;51.022;6.764;2023-09-07T15:47:18;34.30;99.90
2435;DHT22;1228;51.022;6.764;2023-09-07T15:49:44;34.20;99.90
2435;DHT22;1228;51.022;6.764;2023-09-07T15:52:12;34.10;99.90
2435;DHT22;1228;51.022;6.764;2023-09-07T15:54:38;34.10;99.90
2435;DHT22;1228;51.022;6.764;2023-09-07T15:57:04;34.10;99.90
2435;DHT22;1228;51.022;6.764;2023-09-07T15:59:30;34.10;99.90